sensor_id;sensor_type;location;lat;lon;timestamp;temperature;humidity
73547;SHT30;61807;48.384;-4.386;2022-12-29T00:02:09;11.81;78.12
73547;SHT30;61807;48.384;-4.386;2022-12-29T00:04:34;11.80;78.07
73547;SHT30;61807;48.384;-4.386;2022-12-29T00:07:00;11.80;78.07
73547;SHT30;61807;48.384;-4.386;2022-12-29T00:09:26;11.81;78.09
73547;SHT30;61807;48.384;-4.386;2022-12-29T00:11:51;11.81;78.03
73547;SHT30;61807;48.384;-4.386;2022-12-29T00:14:16;11.83;78.14
73547;SHT30;61807;48.384;-4.386;2022-12-29T00:17:01;11.80;78.11
73547;SHT30;61807;48.384;-4.386;2022-12-29T00:19:26;11.81;78.10
73547;SHT30;61807;48.384;-4.386;2022-12-29T00:22:13;11.80;78.10
73547;SHT30;61807;48.384;-4.386;2022-12-29T00:24:56;11.83;78.00
73547;SHT30;61807;48.384;-4.386;2022-12-29T00:27:34;11.84;77.99
73547;SHT30;61807;48.384;-4.386;2022-12-29T00:30:21;11.87;77.83
73547;SHT30;61807;48.384;-4.386;2022-12-29T00:33:17;11.90;77.85
73547;SHT30;61807;48.384;-4.386;2022-12-29T00:36:21;11.93;77.66
73547;SHT30;61807;48.384;-4.386;2022-12-29T00:38:57;11.95;77.62
73547;SHT30;61807;48.384;-4.386;2022-12-29T00:41:42;11.99;77.71
73547;SHT30;61807;48.384;-4.386;2022-12-29T00:44:26;11.97;77.76
73547;SHT30;61807;48.384;-4.386;2022-12-29T00:46:52;11.95;77.74
73547;SHT30;61807;48.384;-4.386;2022-12-29T00:49:17;11.93;77.36
73547;SHT30;61807;48.384;-4.386;2022-12-29T00:52:06;11.90;76.80
73547;SHT30;61807;48.384;-4.386;2022-12-29T00:54:37;11.90;76.57
73547;SHT30;61807;48.384;-4.386;2022-12-29T00:57:04;11.85;76.27
73547;SHT30;61807;48.384;-4.386;2022-12-29T00:59:30;11.83;75.83
73547;SHT30;61807;48.384;-4.386;2022-12-29T01:01:56;11.81;75.79
73547;SHT30;61807;48.384;-4.386;2022-12-29T01:04:24;11.80;75.37
73547;SHT30;61807;48.384;-4.386;2022-12-29T01:06:50;11.78;75.42
73547;SHT30;61807;48.384;-4.386;2022-12-29T01:09:16;11.78;75.69
73547;SHT30;61807;48.384;-4.386;2022-12-29T01:12:00;11.80;75.77
73547;SHT30;61807;48.384;-4.386;2022-12-29T01:14:26;11.78;75.75
73547;SHT30;61807;48.384;-4.386;2022-12-29T01:16:52;11.83;75.77
73547;SHT30;61807;48.384;-4.386;2022-12-29T01:19:18;11.84;76.03
73547;SHT30;61807;48.384;-4.386;2022-12-29T01:21:45;11.83;76.51
73547;SHT30;61807;48.384;-4.386;2022-12-29T01:24:10;11.73;76.50
73547;SHT30;61807;48.384;-4.386;2022-12-29T01:26:36;11.56;76.73
73547;SHT30;61807;48.384;-4.386;2022-12-29T01:29:01;11.47;76.95
73547;SHT30;61807;48.384;-4.386;2022-12-29T01:31:27;11.39;77.25
73547;SHT30;61807;48.384;-4.386;2022-12-29T01:33:52;11.33;77.45
73547;SHT30;61807;48.384;-4.386;2022-12-29T01:36:18;11.27;77.74
73547;SHT30;61807;48.384;-4.386;2022-12-29T01:38:44;11.23;77.92
73547;SHT30;61807;48.384;-4.386;2022-12-29T01:41:11;11.22;78.18
73547;SHT30;61807;48.384;-4.386;2022-12-29T01:43:51;11.19;78.51
73547;SHT30;61807;48.384;-4.386;2022-12-29T01:46:39;11.13;78.62
73547;SHT30;61807;48.384;-4.386;2022-12-29T01:51:47;11.11;78.54
73547;SHT30;61807;48.384;-4.386;2022-12-29T01:54:20;11.11;78.28
73547;SHT30;61807;48.384;-4.386;2022-12-29T01:56:50;11.05;78.20
73547;SHT30;61807;48.384;-4.386;2022-12-29T01:59:20;11.06;78.05
73547;SHT30;61807;48.384;-4.386;2022-12-29T02:01:47;11.05;78.22
73547;SHT30;61807;48.384;-4.386;2022-12-29T02:04:13;11.08;78.31
73547;SHT30;61807;48.384;-4.386;2022-12-29T02:06:49;11.12;78.47
73547;SHT30;61807;48.384;-4.386;2022-12-29T02:09:16;11.11;78.39
73547;SHT30;61807;48.384;-4.386;2022-12-29T02:11:41;11.09;78.08
73547;SHT30;61807;48.384;-4.386;2022-12-29T02:14:10;11.02;77.98
73547;SHT30;61807;48.384;-4.386;2022-12-29T02:38:59;10.92;78.13
73547;SHT30;61807;48.384;-4.386;2022-12-29T02:41:42;10.94;78.24
73547;SHT30;61807;48.384;-4.386;2022-12-29T02:44:42;10.96;78.36
73547;SHT30;61807;48.384;-4.386;2022-12-29T02:49:45;11.05;78.55
73547;SHT30;61807;48.384;-4.386;2022-12-29T02:52:18;11.08;77.97
73547;SHT30;61807;48.384;-4.386;2022-12-29T02:54:48;11.12;77.73
73547;SHT30;61807;48.384;-4.386;2022-12-29T02:57:14;11.12;77.37
73547;SHT30;61807;48.384;-4.386;2022-12-29T02:59:42;11.11;77.15
73547;SHT30;61807;48.384;-4.386;2022-12-29T03:02:32;11.08;76.86
73547;SHT30;61807;48.384;-4.386;2022-12-29T03:16:21;11.01;76.58
73547;SHT30;61807;48.384;-4.386;2022-12-29T03:18:55;11.01;76.57
73547;SHT30;61807;48.384;-4.386;2022-12-29T03:24:17;11.08;76.33
73547;SHT30;61807;48.384;-4.386;2022-12-29T03:26:45;11.11;75.40
73547;SHT30;61807;48.384;-4.386;2022-12-29T03:29:13;11.09;75.29
73547;SHT30;61807;48.384;-4.386;2022-12-29T03:31:42;11.01;75.00
73547;SHT30;61807;48.384;-4.386;2022-12-29T03:34:08;10.94;74.80
73547;SHT30;61807;48.384;-4.386;2022-12-29T03:37:14;10.85;74.79
73547;SHT30;61807;48.384;-4.386;2022-12-29T03:39:41;10.84;74.38
73547;SHT30;61807;48.384;-4.386;2022-12-29T03:42:12;10.79;73.88
73547;SHT30;61807;48.384;-4.386;2022-12-29T03:44:41;10.76;74.32
73547;SHT30;61807;48.384;-4.386;2022-12-29T03:47:07;10.69;74.40
73547;SHT30;61807;48.384;-4.386;2022-12-29T03:49:33;10.67;74.70
73547;SHT30;61807;48.384;-4.386;2022-12-29T03:51:59;10.63;74.94
73547;SHT30;61807;48.384;-4.386;2022-12-29T03:54:24;10.64;74.98
73547;SHT30;61807;48.384;-4.386;2022-12-29T03:56:49;10.67;75.22
73547;SHT30;61807;48.384;-4.386;2022-12-29T03:59:15;10.67;75.45
73547;SHT30;61807;48.384;-4.386;2022-12-29T04:01:40;10.67;75.68
73547;SHT30;61807;48.384;-4.386;2022-12-29T04:04:06;10.69;75.99
73547;SHT30;61807;48.384;-4.386;2022-12-29T04:06:31;10.75;75.89
73547;SHT30;61807;48.384;-4.386;2022-12-29T04:08:57;10.79;74.91
73547;SHT30;61807;48.384;-4.386;2022-12-29T04:11:22;10.75;74.94
73547;SHT30;61807;48.384;-4.386;2022-12-29T04:13:48;10.74;74.37
73547;SHT30;61807;48.384;-4.386;2022-12-29T04:16:13;10.69;74.13
73547;SHT30;61807;48.384;-4.386;2022-12-29T04:18:39;10.67;74.11
73547;SHT30;61807;48.384;-4.386;2022-12-29T04:21:04;10.64;74.53
73547;SHT30;61807;48.384;-4.386;2022-12-29T04:23:34;10.61;74.75
73547;SHT30;61807;48.384;-4.386;2022-12-29T04:26:00;10.61;74.99
73547;SHT30;61807;48.384;-4.386;2022-12-29T04:28:25;10.61;75.21
73547;SHT30;61807;48.384;-4.386;2022-12-29T04:30:51;10.61;75.40
73547;SHT30;61807;48.384;-4.386;2022-12-29T04:33:17;10.61;75.56
73547;SHT30;61807;48.384;-4.386;2022-12-29T04:35:43;10.63;75.65
73547;SHT30;61807;48.384;-4.386;2022-12-29T04:38:09;10.63;75.67
73547;SHT30;61807;48.384;-4.386;2022-12-29T04:40:35;10.65;75.61
73547;SHT30;61807;48.384;-4.386;2022-12-29T04:43:00;10.65;75.43
73547;SHT30;61807;48.384;-4.386;2022-12-29T04:45:26;10.68;75.42
73547;SHT30;61807;48.384;-4.386;2022-12-29T04:47:51;10.72;75.48
73547;SHT30;61807;48.384;-4.386;2022-12-29T04:50:17;10.72;75.45
73547;SHT30;61807;48.384;-4.386;2022-12-29T04:52:43;10.78;75.31
73547;SHT30;61807;48.384;-4.386;2022-12-29T04:55:08;10.78;75.11
73547;SHT30;61807;48.384;-4.386;2022-12-29T04:57:33;10.82;74.53
73547;SHT30;61807;48.384;-4.386;2022-12-29T04:59:59;10.85;74.12
73547;SHT30;61807;48.384;-4.386;2022-12-29T05:02:24;10.92;73.63
73547;SHT30;61807;48.384;-4.386;2022-12-29T05:04:49;10.91;73.69
73547;SHT30;61807;48.384;-4.386;2022-12-29T05:07:15;10.91;73.85
73547;SHT30;61807;48.384;-4.386;2022-12-29T05:09:40;10.89;73.76
73547;SHT30;61807;48.384;-4.386;2022-12-29T05:12:06;10.85;73.86
73547;SHT30;61807;48.384;-4.386;2022-12-29T05:14:32;10.82;73.91
73547;SHT30;61807;48.384;-4.386;2022-12-29T05:16:57;10.79;73.84
73547;SHT30;61807;48.384;-4.386;2022-12-29T05:19:23;10.79;73.88
73547;SHT30;61807;48.384;-4.386;2022-12-29T05:21:48;10.78;73.87
73547;SHT30;61807;48.384;-4.386;2022-12-29T05:24:13;10.78;73.77
73547;SHT30;61807;48.384;-4.386;2022-12-29T05:26:39;10.75;73.72
73547;SHT30;61807;48.384;-4.386;2022-12-29T05:29:04;10.71;73.79
73547;SHT30;61807;48.384;-4.386;2022-12-29T05:31:30;10.74;73.89
73547;SHT30;61807;48.384;-4.386;2022-12-29T05:33:55;10.71;74.11
73547;SHT30;61807;48.384;-4.386;2022-12-29T05:36:20;10.76;74.19
73547;SHT30;61807;48.384;-4.386;2022-12-29T05:38:46;10.79;74.14
73547;SHT30;61807;48.384;-4.386;2022-12-29T05:41:11;10.84;74.27
73547;SHT30;61807;48.384;-4.386;2022-12-29T05:43:36;10.84;74.38
73547;SHT30;61807;48.384;-4.386;2022-12-29T05:46:02;10.88;74.45
73547;SHT30;61807;48.384;-4.386;2022-12-29T05:48:28;10.89;74.61
73547;SHT30;61807;48.384;-4.386;2022-12-29T05:50:53;10.88;74.67
73547;SHT30;61807;48.384;-4.386;2022-12-29T05:53:19;10.89;74.60
73547;SHT30;61807;48.384;-4.386;2022-12-29T05:55:47;10.88;74.76
73547;SHT30;61807;48.384;-4.386;2022-12-29T05:58:13;10.89;74.79
73547;SHT30;61807;48.384;-4.386;2022-12-29T06:00:38;10.89;74.77
73547;SHT30;61807;48.384;-4.386;2022-12-29T06:03:03;10.88;74.87
73547;SHT30;61807;48.384;-4.386;2022-12-29T06:05:29;10.89;74.89
73547;SHT30;61807;48.384;-4.386;2022-12-29T06:07:54;10.86;74.85
73547;SHT30;61807;48.384;-4.386;2022-12-29T06:10:20;10.85;74.87
73547;SHT30;61807;48.384;-4.386;2022-12-29T06:12:45;10.85;74.95
73547;SHT30;61807;48.384;-4.386;2022-12-29T06:15:12;10.85;74.95
73547;SHT30;61807;48.384;-4.386;2022-12-29T06:17:37;10.81;74.98
73547;SHT30;61807;48.384;-4.386;2022-12-29T06:20:03;10.81;74.91
73547;SHT30;61807;48.384;-4.386;2022-12-29T06:22:29;10.79;74.85
73547;SHT30;61807;48.384;-4.386;2022-12-29T06:24:54;10.78;74.60
73547;SHT30;61807;48.384;-4.386;2022-12-29T06:27:19;10.79;74.56
73547;SHT30;61807;48.384;-4.386;2022-12-29T06:29:45;10.79;74.40
73547;SHT30;61807;48.384;-4.386;2022-12-29T06:32:11;10.82;74.29
73547;SHT30;61807;48.384;-4.386;2022-12-29T06:34:36;10.79;74.06
73547;SHT30;61807;48.384;-4.386;2022-12-29T06:37:02;10.79;73.80
73547;SHT30;61807;48.384;-4.386;2022-12-29T06:39:27;10.81;73.72
73547;SHT30;61807;48.384;-4.386;2022-12-29T06:41:53;10.86;73.68
73547;SHT30;61807;48.384;-4.386;2022-12-29T06:44:22;10.85;73.70
73547;SHT30;61807;48.384;-4.386;2022-12-29T06:46:47;10.85;74.16
73547;SHT30;61807;48.384;-4.386;2022-12-29T06:49:13;10.79;74.10
73547;SHT30;61807;48.384;-4.386;2022-12-29T06:51:38;10.76;74.13
73547;SHT30;61807;48.384;-4.386;2022-12-29T06:54:04;10.69;74.36
73547;SHT30;61807;48.384;-4.386;2022-12-29T06:56:29;10.67;74.31
73547;SHT30;61807;48.384;-4.386;2022-12-29T06:58:55;10.65;74.31
73547;SHT30;61807;48.384;-4.386;2022-12-29T07:01:20;10.61;74.24
73547;SHT30;61807;48.384;-4.386;2022-12-29T07:03:45;10.60;73.96
73547;SHT30;61807;48.384;-4.386;2022-12-29T07:06:11;10.60;74.05
73547;SHT30;61807;48.384;-4.386;2022-12-29T07:08:36;10.57;74.03
73547;SHT30;61807;48.384;-4.386;2022-12-29T07:11:02;10.54;74.01
73547;SHT30;61807;48.384;-4.386;2022-12-29T07:13:27;10.53;73.80
73547;SHT30;61807;48.384;-4.386;2022-12-29T07:15:53;10.50;73.81
73547;SHT30;61807;48.384;-4.386;2022-12-29T07:18:18;10.48;73.91
73547;SHT30;61807;48.384;-4.386;2022-12-29T07:20:44;10.48;73.98
73547;SHT30;61807;48.384;-4.386;2022-12-29T07:23:09;10.48;73.88
73547;SHT30;61807;48.384;-4.386;2022-12-29T07:25:35;10.48;73.88
73547;SHT30;61807;48.384;-4.386;2022-12-29T07:28:01;10.44;73.94
73547;SHT30;61807;48.384;-4.386;2022-12-29T07:30:27;10.44;73.91
73547;SHT30;61807;48.384;-4.386;2022-12-29T07:32:52;10.46;73.88
73547;SHT30;61807;48.384;-4.386;2022-12-29T07:35:18;10.43;73.87
73547;SHT30;61807;48.384;-4.386;2022-12-29T07:37:43;10.41;73.88
73547;SHT30;61807;48.384;-4.386;2022-12-29T07:40:09;10.43;73.92
73547;SHT30;61807;48.384;-4.386;2022-12-29T07:42:35;10.43;73.89
73547;SHT30;61807;48.384;-4.386;2022-12-29T07:45:00;10.44;73.66
73547;SHT30;61807;48.384;-4.386;2022-12-29T07:47:26;10.47;73.68
73547;SHT30;61807;48.384;-4.386;2022-12-29T07:49:51;10.50;73.61
73547;SHT30;61807;48.384;-4.386;2022-12-29T07:52:17;10.51;73.55
73547;SHT30;61807;48.384;-4.386;2022-12-29T07:54:42;10.51;73.33
73547;SHT30;61807;48.384;-4.386;2022-12-29T07:57:08;10.51;73.23
73547;SHT30;61807;48.384;-4.386;2022-12-29T07:59:33;10.51;73.27
73547;SHT30;61807;48.384;-4.386;2022-12-29T08:01:59;10.53;73.07
73547;SHT30;61807;48.384;-4.386;2022-12-29T08:04:24;10.55;73.18
73547;SHT30;61807;48.384;-4.386;2022-12-29T08:06:50;10.55;73.25
73547;SHT30;61807;48.384;-4.386;2022-12-29T08:09:15;10.58;73.33
73547;SHT30;61807;48.384;-4.386;2022-12-29T08:11:41;10.58;73.13
73547;SHT30;61807;48.384;-4.386;2022-12-29T08:14:07;10.60;73.40
73547;SHT30;61807;48.384;-4.386;2022-12-29T08:16:33;10.57;73.66
73547;SHT30;61807;48.384;-4.386;2022-12-29T08:18:58;10.53;73.80
73547;SHT30;61807;48.384;-4.386;2022-12-29T08:21:24;10.47;73.70
73547;SHT30;61807;48.384;-4.386;2022-12-29T08:23:50;10.47;73.57
73547;SHT30;61807;48.384;-4.386;2022-12-29T08:26:15;10.48;73.62
73547;SHT30;61807;48.384;-4.386;2022-12-29T08:28:40;10.47;73.44
73547;SHT30;61807;48.384;-4.386;2022-12-29T08:31:06;10.47;73.36
73547;SHT30;61807;48.384;-4.386;2022-12-29T08:33:31;10.50;73.51
73547;SHT30;61807;48.384;-4.386;2022-12-29T08:36:05;10.48;73.58
73547;SHT30;61807;48.384;-4.386;2022-12-29T08:38:32;10.48;73.77
73547;SHT30;61807;48.384;-4.386;2022-12-29T08:40:58;10.55;73.96
73547;SHT30;61807;48.384;-4.386;2022-12-29T08:43:24;10.61;74.36
73547;SHT30;61807;48.384;-4.386;2022-12-29T08:45:50;10.65;74.39
73547;SHT30;61807;48.384;-4.386;2022-12-29T08:48:16;10.72;74.50
73547;SHT30;61807;48.384;-4.386;2022-12-29T08:50:45;10.75;74.63
73547;SHT30;61807;48.384;-4.386;2022-12-29T08:53:11;10.76;74.71
73547;SHT30;61807;48.384;-4.386;2022-12-29T08:55:37;10.81;74.57
73547;SHT30;61807;48.384;-4.386;2022-12-29T08:58:02;10.81;74.34
73547;SHT30;61807;48.384;-4.386;2022-12-29T09:00:27;10.84;74.11
73547;SHT30;61807;48.384;-4.386;2022-12-29T09:02:53;10.86;73.72
73547;SHT30;61807;48.384;-4.386;2022-12-29T09:05:18;10.89;73.53
73547;SHT30;61807;48.384;-4.386;2022-12-29T09:07:44;10.94;73.51
73547;SHT30;61807;48.384;-4.386;2022-12-29T09:10:09;10.99;73.52
73547;SHT30;61807;48.384;-4.386;2022-12-29T09:12:35;11.06;73.51
73547;SHT30;61807;48.384;-4.386;2022-12-29T09:15:00;11.20;73.56
73547;SHT30;61807;48.384;-4.386;2022-12-29T09:17:25;11.32;73.68
73547;SHT30;61807;48.384;-4.386;2022-12-29T09:20:08;11.42;73.75
73547;SHT30;61807;48.384;-4.386;2022-12-29T09:22:34;11.56;73.63
73547;SHT30;61807;48.384;-4.386;2022-12-29T09:25:00;11.64;73.40
73547;SHT30;61807;48.384;-4.386;2022-12-29T09:27:25;11.71;73.40
73547;SHT30;61807;48.384;-4.386;2022-12-29T09:29:50;11.83;73.35
73547;SHT30;61807;48.384;-4.386;2022-12-29T09:32:16;11.88;73.21
73547;SHT30;61807;48.384;-4.386;2022-12-29T09:34:41;11.94;73.10
73547;SHT30;61807;48.384;-4.386;2022-12-29T09:37:06;11.91;72.58
73547;SHT30;61807;48.384;-4.386;2022-12-29T09:39:32;11.93;72.62
73547;SHT30;61807;48.384;-4.386;2022-12-29T09:42:08;11.93;72.72
73547;SHT30;61807;48.384;-4.386;2022-12-29T09:47:14;12.02;73.02
73547;SHT30;61807;48.384;-4.386;2022-12-29T09:49:44;12.06;72.78
73547;SHT30;61807;48.384;-4.386;2022-12-29T09:52:19;12.15;72.66
73547;SHT30;61807;48.384;-4.386;2022-12-29T09:55:04;12.21;72.50
73547;SHT30;61807;48.384;-4.386;2022-12-29T09:58:05;12.26;72.40
73547;SHT30;61807;48.384;-4.386;2022-12-29T10:00:53;12.29;72.48
73547;SHT30;61807;48.384;-4.386;2022-12-29T10:03:21;12.50;72.46
73547;SHT30;61807;48.384;-4.386;2022-12-29T10:05:51;12.75;72.42
73547;SHT30;61807;48.384;-4.386;2022-12-29T10:14:06;13.21;71.54
73547;SHT30;61807;48.384;-4.386;2022-12-29T10:19:24;13.25;69.87
73547;SHT30;61807;48.384;-4.386;2022-12-29T10:24:45;12.87;70.01
73547;SHT30;61807;48.384;-4.386;2022-12-29T10:27:13;12.73;70.43
73547;SHT30;61807;48.384;-4.386;2022-12-29T10:30:05;12.60;70.15
73547;SHT30;61807;48.384;-4.386;2022-12-29T10:32:37;12.46;70.28
73547;SHT30;61807;48.384;-4.386;2022-12-29T10:35:25;12.31;70.62
73547;SHT30;61807;48.384;-4.386;2022-12-29T10:40:46;12.42;70.67
73547;SHT30;61807;48.384;-4.386;2022-12-29T10:45:45;12.39;70.26
73547;SHT30;61807;48.384;-4.386;2022-12-29T10:48:20;12.38;70.22
73547;SHT30;61807;48.384;-4.386;2022-12-29T10:50:47;12.33;70.19
73547;SHT30;61807;48.384;-4.386;2022-12-29T10:53:21;12.32;70.47
73547;SHT30;61807;48.384;-4.386;2022-12-29T10:55:49;12.62;70.65
73547;SHT30;61807;48.384;-4.386;2022-12-29T10:58:15;12.94;70.30
73547;SHT30;61807;48.384;-4.386;2022-12-29T11:00:42;13.27;70.18
73547;SHT30;61807;48.384;-4.386;2022-12-29T11:03:31;13.52;69.57
73547;SHT30;61807;48.384;-4.386;2022-12-29T11:06:12;13.59;69.12
73547;SHT30;61807;48.384;-4.386;2022-12-29T11:08:47;13.45;68.85
73547;SHT30;61807;48.384;-4.386;2022-12-29T11:11:23;13.30;69.10
73547;SHT30;61807;48.384;-4.386;2022-12-29T11:13:51;13.32;69.31
73547;SHT30;61807;48.384;-4.386;2022-12-29T11:16:31;13.70;69.22
73547;SHT30;61807;48.384;-4.386;2022-12-29T11:18:58;14.17;68.87
73547;SHT30;61807;48.384;-4.386;2022-12-29T11:21:34;14.41;68.23
73547;SHT30;61807;48.384;-4.386;2022-12-29T11:24:28;14.48;68.43
73547;SHT30;61807;48.384;-4.386;2022-12-29T11:26:55;14.38;68.28
73547;SHT30;61807;48.384;-4.386;2022-12-29T11:29:38;14.14;68.51
73547;SHT30;61807;48.384;-4.386;2022-12-29T11:34:36;13.72;68.89
73547;SHT30;61807;48.384;-4.386;2022-12-29T11:37:29;13.52;69.32
73547;SHT30;61807;48.384;-4.386;2022-12-29T11:42:40;13.24;69.26
73547;SHT30;61807;48.384;-4.386;2022-12-29T11:45:16;13.54;68.93
73547;SHT30;61807;48.384;-4.386;2022-12-29T11:47:44;13.87;67.95
73547;SHT30;61807;48.384;-4.386;2022-12-29T11:50:18;14.30;67.78
73547;SHT30;61807;48.384;-4.386;2022-12-29T11:52:46;14.68;67.23
73547;SHT30;61807;48.384;-4.386;2022-12-29T11:55:24;15.16;67.46
73547;SHT30;61807;48.384;-4.386;2022-12-29T11:57:52;15.22;67.07
73547;SHT30;61807;48.384;-4.386;2022-12-29T12:00:21;15.03;65.98
73547;SHT30;61807;48.384;-4.386;2022-12-29T12:02:58;14.82;66.27
73547;SHT30;61807;48.384;-4.386;2022-12-29T12:08:02;14.92;66.25
73547;SHT30;61807;48.384;-4.386;2022-12-29T12:10:37;14.89;66.68
73547;SHT30;61807;48.384;-4.386;2022-12-29T12:13:33;14.64;65.53
73547;SHT30;61807;48.384;-4.386;2022-12-29T12:18:51;13.83;66.23
73547;SHT30;61807;48.384;-4.386;2022-12-29T12:29:18;12.89;68.62
73547;SHT30;61807;48.384;-4.386;2022-12-29T12:31:55;12.79;68.81
73547;SHT30;61807;48.384;-4.386;2022-12-29T12:34:28;12.70;69.09
73547;SHT30;61807;48.384;-4.386;2022-12-29T12:39:26;12.35;69.55
73547;SHT30;61807;48.384;-4.386;2022-12-29T13:01:22;14.14;69.94
73547;SHT30;61807;48.384;-4.386;2022-12-29T13:11:25;14.23;69.00
73547;SHT30;61807;48.384;-4.386;2022-12-29T13:30:15;13.07;70.23
73547;SHT30;61807;48.384;-4.386;2022-12-29T13:35:34;12.73;71.02
73547;SHT30;61807;48.384;-4.386;2022-12-29T13:40:55;12.57;71.38
73547;SHT30;61807;48.384;-4.386;2022-12-29T13:43:23;12.49;71.66
73547;SHT30;61807;48.384;-4.386;2022-12-29T13:45:57;12.36;71.80
73547;SHT30;61807;48.384;-4.386;2022-12-29T13:48:37;12.26;72.10
73547;SHT30;61807;48.384;-4.386;2022-12-29T13:51:05;12.29;72.37
73547;SHT30;61807;48.384;-4.386;2022-12-29T13:56:12;12.32;72.49
73547;SHT30;61807;48.384;-4.386;2022-12-29T13:58:54;12.29;72.56
73547;SHT30;61807;48.384;-4.386;2022-12-29T14:01:42;12.18;72.52
73547;SHT30;61807;48.384;-4.386;2022-12-29T14:04:14;12.10;72.53
73547;SHT30;61807;48.384;-4.386;2022-12-29T14:06:40;12.05;72.75
73547;SHT30;61807;48.384;-4.386;2022-12-29T14:11:51;11.95;72.88
73547;SHT30;61807;48.384;-4.386;2022-12-29T14:14:23;11.95;73.06
73547;SHT30;61807;48.384;-4.386;2022-12-29T14:16:50;11.93;72.92
73547;SHT30;61807;48.384;-4.386;2022-12-29T14:19:34;11.93;73.05
73547;SHT30;61807;48.384;-4.386;2022-12-29T14:22:04;11.95;72.94
73547;SHT30;61807;48.384;-4.386;2022-12-29T14:35:00;12.02;73.05
73547;SHT30;61807;48.384;-4.386;2022-12-29T14:37:45;12.05;73.03
73547;SHT30;61807;48.384;-4.386;2022-12-29T14:42:51;12.06;72.97
73547;SHT30;61807;48.384;-4.386;2022-12-29T14:47:51;12.08;73.23
73547;SHT30;61807;48.384;-4.386;2022-12-29T14:50:23;12.18;73.31
73547;SHT30;61807;48.384;-4.386;2022-12-29T14:52:58;12.26;73.42
73547;SHT30;61807;48.384;-4.386;2022-12-29T14:58:01;12.57;73.41
73547;SHT30;61807;48.384;-4.386;2022-12-29T15:00:31;12.72;73.24
73547;SHT30;61807;48.384;-4.386;2022-12-29T15:03:38;12.89;72.72
73547;SHT30;61807;48.384;-4.386;2022-12-29T15:06:10;12.93;72.31
73547;SHT30;61807;48.384;-4.386;2022-12-29T15:09:04;12.81;71.86
73547;SHT30;61807;48.384;-4.386;2022-12-29T15:14:02;12.77;72.21
73547;SHT30;61807;48.384;-4.386;2022-12-29T15:16:32;12.75;72.15
73547;SHT30;61807;48.384;-4.386;2022-12-29T15:18:58;12.80;72.06
73547;SHT30;61807;48.384;-4.386;2022-12-29T15:21:31;12.84;71.84
73547;SHT30;61807;48.384;-4.386;2022-12-29T15:23:56;12.80;71.47
73547;SHT30;61807;48.384;-4.386;2022-12-29T15:26:22;12.76;71.49
73547;SHT30;61807;48.384;-4.386;2022-12-29T15:28:52;12.72;71.46
73547;SHT30;61807;48.384;-4.386;2022-12-29T15:33:48;12.66;71.10
73547;SHT30;61807;48.384;-4.386;2022-12-29T15:36:25;12.57;70.92
73547;SHT30;61807;48.384;-4.386;2022-12-29T15:38:51;12.56;71.06
73547;SHT30;61807;48.384;-4.386;2022-12-29T15:44:43;12.49;70.86
73547;SHT30;61807;48.384;-4.386;2022-12-29T15:46:37;12.45;71.00
73547;SHT30;61807;48.384;-4.386;2022-12-29T15:49:08;12.45;71.16
73547;SHT30;61807;48.384;-4.386;2022-12-29T15:51:37;12.42;71.17
73547;SHT30;61807;48.384;-4.386;2022-12-29T15:54:04;12.43;71.40
73547;SHT30;61807;48.384;-4.386;2022-12-29T15:56:31;12.39;71.16
73547;SHT30;61807;48.384;-4.386;2022-12-29T15:58:58;12.32;71.45
73547;SHT30;61807;48.384;-4.386;2022-12-29T16:01:30;12.26;71.56
73547;SHT30;61807;48.384;-4.386;2022-12-29T16:03:58;12.25;71.58
73547;SHT30;61807;48.384;-4.386;2022-12-29T16:06:36;12.15;71.62
73547;SHT30;61807;48.384;-4.386;2022-12-29T16:11:38;12.08;71.83
73547;SHT30;61807;48.384;-4.386;2022-12-29T16:14:15;12.05;71.79
73547;SHT30;61807;48.384;-4.386;2022-12-29T16:16:43;12.06;71.84
73547;SHT30;61807;48.384;-4.386;2022-12-29T16:19:29;12.04;71.82
73547;SHT30;61807;48.384;-4.386;2022-12-29T16:21:58;11.97;71.83
73547;SHT30;61807;48.384;-4.386;2022-12-29T16:24:26;11.90;71.94
73547;SHT30;61807;48.384;-4.386;2022-12-29T16:29:55;11.78;72.23
73547;SHT30;61807;48.384;-4.386;2022-12-29T16:32:26;11.74;72.25
73547;SHT30;61807;48.384;-4.386;2022-12-29T16:37:38;11.57;72.59
73547;SHT30;61807;48.384;-4.386;2022-12-29T16:40:29;11.56;72.67
73547;SHT30;61807;48.384;-4.386;2022-12-29T16:43:00;11.54;72.59
73547;SHT30;61807;48.384;-4.386;2022-12-29T16:50:33;11.42;72.63
73547;SHT30;61807;48.384;-4.386;2022-12-29T16:52:59;11.37;72.67
73547;SHT30;61807;48.384;-4.386;2022-12-29T16:55:25;11.39;72.66
73547;SHT30;61807;48.384;-4.386;2022-12-29T16:57:52;11.40;72.18
73547;SHT30;61807;48.384;-4.386;2022-12-29T17:00:23;11.42;72.07
73547;SHT30;61807;48.384;-4.386;2022-12-29T17:02:50;11.47;72.05
73547;SHT30;61807;48.384;-4.386;2022-12-29T17:05:18;11.52;72.10
73547;SHT30;61807;48.384;-4.386;2022-12-29T17:07:44;11.56;72.10
73547;SHT30;61807;48.384;-4.386;2022-12-29T17:10:11;11.60;72.10
73547;SHT30;61807;48.384;-4.386;2022-12-29T17:12:37;11.60;72.09
73547;SHT30;61807;48.384;-4.386;2022-12-29T17:17:49;11.66;72.10
73547;SHT30;61807;48.384;-4.386;2022-12-29T17:20:19;11.64;72.20
73547;SHT30;61807;48.384;-4.386;2022-12-29T17:22:45;11.70;72.23
73547;SHT30;61807;48.384;-4.386;2022-12-29T17:25:13;11.67;72.11
73547;SHT30;61807;48.384;-4.386;2022-12-29T17:28:05;11.60;72.18
73547;SHT30;61807;48.384;-4.386;2022-12-29T17:30:35;11.54;72.26
73547;SHT30;61807;48.384;-4.386;2022-12-29T17:33:15;11.49;72.31
73547;SHT30;61807;48.384;-4.386;2022-12-29T17:35:41;11.43;72.49
73547;SHT30;61807;48.384;-4.386;2022-12-29T17:38:21;11.39;72.61
73547;SHT30;61807;48.384;-4.386;2022-12-29T17:40:47;11.33;72.71
73547;SHT30;61807;48.384;-4.386;2022-12-29T17:43:14;11.29;72.85
73547;SHT30;61807;48.384;-4.386;2022-12-29T17:45:40;11.26;72.91
73547;SHT30;61807;48.384;-4.386;2022-12-29T17:48:14;11.25;72.93
73547;SHT30;61807;48.384;-4.386;2022-12-29T17:50:40;11.27;72.96
73547;SHT30;61807;48.384;-4.386;2022-12-29T17:53:10;11.25;73.11
73547;SHT30;61807;48.384;-4.386;2022-12-29T17:55:37;11.25;73.07
73547;SHT30;61807;48.384;-4.386;2022-12-29T17:58:15;11.26;73.16
73547;SHT30;61807;48.384;-4.386;2022-12-29T18:00:41;11.27;73.11
73547;SHT30;61807;48.384;-4.386;2022-12-29T18:03:08;11.25;73.10
73547;SHT30;61807;48.384;-4.386;2022-12-29T18:05:36;11.27;73.13
73547;SHT30;61807;48.384;-4.386;2022-12-29T18:08:02;11.30;73.04
73547;SHT30;61807;48.384;-4.386;2022-12-29T18:10:29;11.33;72.99
73547;SHT30;61807;48.384;-4.386;2022-12-29T18:12:58;11.32;72.92
73547;SHT30;61807;48.384;-4.386;2022-12-29T18:15:29;11.32;72.93
73547;SHT30;61807;48.384;-4.386;2022-12-29T18:18:10;11.29;73.00
73547;SHT30;61807;48.384;-4.386;2022-12-29T18:20:36;11.23;73.01
73547;SHT30;61807;48.384;-4.386;2022-12-29T18:23:01;11.25;73.09
73547;SHT30;61807;48.384;-4.386;2022-12-29T18:25:39;11.23;73.17
73547;SHT30;61807;48.384;-4.386;2022-12-29T18:28:05;11.27;73.17
73547;SHT30;61807;48.384;-4.386;2022-12-29T18:30:31;11.32;73.10